Time;durP1;ratioP1;P1;durP2;ratioP2;P2;SDS_P1;SDS_P2;PMS_P1;PMS_P2;Temp;Humidity;BMP_temperature;BMP_pressure;BME280_temperature;BME280_humidity;BME280_pressure;Samples;Min_cycle;Max_cycle;Signal;HPM_P1;HPM_P2
2022/04/23 20:49:57;;;;;;;7.45;5.75;;;11.90;66.20;;;;;;5105794;27;468435;-69
2022/04/23 20:55:08;;;;;;;8.40;6.25;;;11.80;72.60;;;;;;5121871;28;20397;-68
2022/04/23 20:57:33;;;;;;;7.10;6.40;;;11.70;72.40;;;;;;5120835;28;20043;-69
2022/04/23 21:00:00;;;;;;;7.95;5.95;;;11.70;73.90;;;;;;5123447;28;20050;-68
2022/04/23 21:02:26;;;;;;;10.85;6.35;;;11.60;72.30;;;;;;5119054;28;20039;-68
2022/04/23 21:04:51;;;;;;;10.00;5.85;;;11.60;75.50;;;;;;5121145;27;20031;-68
2022/04/23 21:07:18;;;;;;;7.15;6.30;;;11.60;75.90;;;;;;5123414;28;20089;-68
2022/04/23 21:09:44;;;;;;;7.30;6.30;;;11.50;76.90;;;;;;5123433;27;20032;-69
2022/04/23 21:12:10;;;;;;;6.47;5.63;;;11.50;76.70;;;;;;5122497;28;20075;-68
2022/04/23 21:14:36;;;;;;;9.65;6.57;;;11.50;78.70;;;;;;5123130;28;20120;-68
2022/04/23 21:17:02;;;;;;;7.93;6.13;;;11.50;77.80;;;;;;5121728;28;20046;-69
2022/04/23 21:19:28;;;;;;;10.82;5.97;;;11.50;75.70;;;;;;5123723;27;20052;-68
2022/04/23 21:21:54;;;;;;;10.80;5.53;;;11.50;74.40;;;;;;5122883;27;20027;-68
2022/04/23 21:24:19;;;;;;;15.00;5.55;;;11.40;75.00;;;;;;5122506;27;20043;-68
2022/04/23 21:26:45;;;;;;;7.18;5.43;;;11.40;74.70;;;;;;5121988;27;20465;-68
2022/04/23 21:29:11;;;;;;;6.25;5.15;;;11.30;76.90;;;;;;5119458;27;20043;-69
2022/04/23 21:31:37;;;;;;;6.00;5.38;;;11.30;80.30;;;;;;5120399;28;20044;-67
2022/04/23 21:34:02;;;;;;;6.30;5.05;;;11.20;78.70;;;;;;5121236;28;20180;-68
2022/04/23 21:36:28;;;;;;;6.00;4.63;;;11.20;79.60;;;;;;5121322;28;20386;-68
2022/04/23 21:38:54;;;;;;;9.40;5.03;;;11.20;80.10;;;;;;5119375;28;20134;-68
2022/04/23 21:46:48;;;;;;;8.18;4.95;;;11.10;79.20;;;;;;5122596;28;20043;-68
2022/04/23 21:49:14;;;;;;;6.18;4.90;;;11.00;78.40;;;;;;5119335;28;20047;-68
2022/04/23 21:51:41;;;;;;;5.28;4.50;;;11.00;80.50;;;;;;5109391;28;20112;-68
2022/04/23 21:54:07;;;;;;;7.10;4.93;;;10.90;82.20;;;;;;5108769;28;20501;-68
2022/04/23 21:56:33;;;;;;;4.32;3.92;;;10.90;80.90;;;;;;5109124;28;20082;-68
2022/04/23 21:58:59;;;;;;;7.82;4.60;;;10.90;80.70;;;;;;5108290;28;20074;-68
2022/04/23 22:01:25;;;;;;;7.78;4.03;;;10.80;80.00;;;;;;5107842;28;20040;-68
2022/04/23 22:03:51;;;;;;;4.72;4.10;;;10.80;76.60;;;;;;5107484;28;20481;-69
2022/04/23 22:06:19;;;;;;;5.13;4.40;;;10.80;78.90;;;;;;5109322;28;20042;-68
2022/04/23 22:08:45;;;;;;;6.13;4.63;;;10.80;77.40;;;;;;5108508;28;20047;-69
2022/04/23 22:11:11;;;;;;;6.30;4.45;;;10.80;79.80;;;;;;5110356;28;20382;-69
2022/04/23 22:13:40;;;;;;;9.90;4.20;;;10.80;80.60;;;;;;5108649;28;20054;-68
2022/04/23 22:16:06;;;;;;;5.83;3.90;;;10.70;81.40;;;;;;5108546;28;20050;-69
2022/04/23 22:18:32;;;;;;;5.30;3.88;;;10.60;79.80;;;;;;5109722;28;20035;-69
2022/04/23 22:20:58;;;;;;;6.43;4.38;;;10.60;82.90;;;;;;5109969;28;20469;-69
2022/04/23 22:23:24;;;;;;;6.07;3.65;;;10.50;82.20;;;;;;5091403;28;20075;-68
2022/04/23 22:25:51;;;;;;;4.28;3.88;;;10.50;81.80;;;;;;5089665;28;20082;-68
2022/04/23 22:28:16;;;;;;;4.90;3.97;;;10.40;80.80;;;;;;5090529;28;20040;-70
2022/04/23 22:30:42;;;;;;;4.25;3.85;;;10.40;82.00;;;;;;5087437;28;20075;-68
2022/04/23 22:33:08;;;;;;;7.13;4.30;;;10.40;82.20;;;;;;5104424;28;20043;-69
2022/04/23 22:35:34;;;;;;;11.02;3.97;;;10.40;80.80;;;;;;5107942;28;20052;-69
2022/04/23 22:38:00;;;;;;;5.47;3.28;;;10.40;80.10;;;;;;5110043;27;20059;-69
2022/04/23 22:40:26;;;;;;;5.70;4.13;;;10.30;81.50;;;;;;5109988;28;20044;-68
2022/04/23 22:42:53;;;;;;;7.07;3.35;;;10.30;83.10;;;;;;5108007;28;20040;-68
2022/04/23 22:45:19;;;;;;;4.25;3.55;;;10.30;82.40;;;;;;5110034;28;20405;-68
2022/04/23 22:47:44;;;;;;;5.68;3.90;;;10.20;81.60;;;;;;5108055;28;20049;-69
2022/04/23 22:50:11;;;;;;;4.97;3.53;;;10.20;84.00;;;;;;5108016;28;20048;-68
2022/04/23 22:52:36;;;;;;;6.63;4.03;;;10.10;84.80;;;;;;5109145;28;20488;-69
2022/04/23 22:55:02;;;;;;;5.13;3.58;;;10.10;84.80;;;;;;5107965;28;20055;-69
2022/04/23 22:57:28;;;;;;;5.07;3.67;;;10.10;85.20;;;;;;5090521;28;20485;-69
2022/04/23 22:59:54;;;;;;;5.93;3.67;;;10.10;85.90;;;;;;5109552;28;20044;-69
2022/04/23 23:02:20;;;;;;;3.90;3.60;;;10.10;85.30;;;;;;5098997;28;20547;-68
2022/04/23 23:04:46;;;;;;;5.80;4.05;;;10.00;87.40;;;;;;5096862;28;20119;-68
2022/04/23 23:07:11;;;;;;;7.68;3.50;;;9.90;88.60;;;;;;5104844;28;20130;-68
2022/04/23 23:09:37;;;;;;;6.03;3.97;;;9.90;88.20;;;;;;5089655;28;20050;-68
2022/04/23 23:12:03;;;;;;;4.75;3.85;;;9.90;90.60;;;;;;5090454;28;20047;-68
2022/04/23 23:14:29;;;;;;;4.10;3.70;;;9.80;91.20;;;;;;5108268;28;20439;-68
2022/04/23 23:16:55;;;;;;;5.88;3.70;;;9.80;91.20;;;;;;5107025;28;20101;-68
2022/04/23 23:19:21;;;;;;;6.90;3.83;;;9.80;90.60;;;;;;5107513;28;20086;-69
2022/04/23 23:21:46;;;;;;;8.70;4.70;;;9.70;91.20;;;;;;5107572;28;20043;-69
2022/04/23 23:24:12;;;;;;;6.70;3.50;;;9.70;91.20;;;;;;5109078;28;20044;-68
2022/04/23 23:26:38;;;;;;;4.55;3.50;;;9.70;91.70;;;;;;5100913;28;20455;-67
2022/04/23 23:29:04;;;;;;;6.15;3.60;;;9.70;91.60;;;;;;5104571;28;20055;-68
2022/04/23 23:31:29;;;;;;;4.30;3.90;;;9.70;91.10;;;;;;5086863;28;20083;-68
2022/04/23 23:33:56;;;;;;;7.97;3.97;;;9.70;91.30;;;;;;5102306;28;20087;-69
2022/04/23 23:36:22;;;;;;;5.35;3.38;;;9.70;91.60;;;;;;5106898;28;20047;-68
2022/04/23 23:38:47;;;;;;;4.40;3.67;;;9.70;90.20;;;;;;5090503;28;20116;-68
2022/04/23 23:41:13;;;;;;;6.38;3.38;;;9.70;91.50;;;;;;5108065;28;20044;-68
2022/04/23 23:43:39;;;;;;;5.38;3.67;;;9.70;92.00;;;;;;5108691;28;20154;-69
2022/04/23 23:46:04;;;;;;;4.30;3.83;;;9.70;91.10;;;;;;5107404;28;20044;-69
2022/04/23 23:48:30;;;;;;;6.10;4.07;;;9.70;91.00;;;;;;5106032;28;20440;-69
2022/04/23 23:50:56;;;;;;;6.47;4.03;;;9.70;91.00;;;;;;5107288;28;20554;-69
2022/04/23 23:53:22;;;;;;;5.50;3.88;;;9.70;91.10;;;;;;5106875;28;20058;-68
2022/04/23 23:55:47;;;;;;;4.28;3.60;;;9.60;90.90;;;;;;5109189;28;20481;-68
2022/04/23 23:58:13;;;;;;;5.00;3.70;;;9.60;91.10;;;;;;5104557;28;20054;-69
